Time;durP1;ratioP1;P1;durP2;ratioP2;P2;SDS_P1;SDS_P2;PMS_P1;PMS_P2;Temp;Humidity;BMP_temperature;BMP_pressure;BME280_temperature;BME280_humidity;BME280_pressure;Samples;Min_cycle;Max_cycle;Signal;HPM_P1;HPM_P2
2022/03/20 00:02:21;;;;;;;0.70;0.70;;;;;;;;;;1805710;77;26406;-43
2022/03/20 00:04:49;;;;;;;0.80;0.80;;;;;;;;;;1801628;77;26301;-43
2022/03/20 00:07:16;;;;;;;1.47;0.85;;;;;;;;;;1787237;77;26301;-43
2022/03/20 00:09:45;;;;;;;0.90;0.70;;;;;;;;;;1786143;78;26752;-42
2022/03/20 00:12:12;;;;;;;0.80;0.80;;;;;;;;;;1782341;78;26270;-47
2022/03/20 00:14:39;;;;;;;0.70;0.70;;;;;;;;;;1784959;78;26278;-43
2022/03/20 00:17:07;;;;;;;1.75;0.90;;;;;;;;;;1790174;78;26276;-47
2022/03/20 00:19:34;;;;;;;0.80;0.80;;;;;;;;;;1793264;78;26739;-44
2022/03/20 00:22:01;;;;;;;1.40;0.70;;;;;;;;;;1780460;78;26812;-43
2022/03/20 00:24:28;;;;;;;0.70;0.70;;;;;;;;;;1789139;78;26298;-42
2022/03/20 00:27:00;;;;;;;2.08;0.60;;;;;;;;;;1795332;78;26415;-44
2022/03/20 00:29:28;;;;;;;0.70;0.70;;;;;;;;;;1787614;78;26586;-44
2022/03/20 00:31:55;;;;;;;0.70;0.70;;;;;;;;;;1780874;78;26290;-43
2022/03/20 00:34:23;;;;;;;0.70;0.70;;;;;;;;;;1775931;79;26294;-43
2022/03/20 00:36:51;;;;;;;0.70;0.70;;;;;;;;;;1795310;79;26362;-43
2022/03/20 00:39:18;;;;;;;0.70;0.70;;;;;;;;;;1776422;79;26289;-43
2022/03/20 00:41:46;;;;;;;0.75;0.75;;;;;;;;;;1791255;78;25667;-45
2022/03/20 00:44:13;;;;;;;0.68;0.68;;;;;;;;;;1794582;79;26706;-43
2022/03/20 00:46:40;;;;;;;0.57;0.50;;;;;;;;;;1776312;79;26802;-45
2022/03/20 00:49:08;;;;;;;1.70;0.60;;;;;;;;;;1777161;79;26242;-44
2022/03/20 00:51:35;;;;;;;1.05;0.70;;;;;;;;;;1778486;79;26344;-44
2022/03/20 00:54:02;;;;;;;1.07;0.50;;;;;;;;;;1814267;78;26275;-43
2022/03/20 00:56:30;;;;;;;0.50;0.50;;;;;;;;;;1808859;78;27246;-43
2022/03/20 00:58:57;;;;;;;0.60;0.60;;;;;;;;;;1805103;79;26267;-43
2022/03/20 01:01:26;;;;;;;0.70;0.70;;;;;;;;;;1787030;79;26286;-44
2022/03/20 01:03:53;;;;;;;0.62;0.55;;;;;;;;;;1791879;78;26759;-47
2022/03/20 01:06:22;;;;;;;0.40;0.40;;;;;;;;;;1806791;78;27763;-44
2022/03/20 01:08:50;;;;;;;0.50;0.50;;;;;;;;;;1792257;77;26741;-45
2022/03/20 01:11:17;;;;;;;0.70;0.70;;;;;;;;;;1813412;77;26274;-43
2022/03/20 01:13:45;;;;;;;0.65;0.50;;;;;;;;;;1810607;77;26726;-42
2022/03/20 01:16:13;;;;;;;0.68;0.68;;;;;;;;;;1816561;77;26271;-43
2022/03/20 01:18:40;;;;;;;0.57;0.57;;;;;;;;;;1818916;77;26697;-44
2022/03/20 01:21:07;;;;;;;0.72;0.72;;;;;;;;;;1822064;77;26206;-45
2022/03/20 01:23:34;;;;;;;0.60;0.60;;;;;;;;;;1820238;78;26288;-44
2022/03/20 01:26:02;;;;;;;0.50;0.50;;;;;;;;;;1806123;77;26329;-44
2022/03/20 01:28:29;;;;;;;1.00;0.70;;;;;;;;;;1810464;79;26282;-43
2022/03/20 01:30:57;;;;;;;0.60;0.60;;;;;;;;;;1794757;78;26746;-43
2022/03/20 01:33:24;;;;;;;0.50;0.50;;;;;;;;;;1824454;77;26271;-43
2022/03/20 01:35:52;;;;;;;0.70;0.70;;;;;;;;;;1809327;77;26263;-43
2022/03/20 01:38:20;;;;;;;0.50;0.50;;;;;;;;;;1806457;78;27267;-45
2022/03/20 01:40:48;;;;;;;0.60;0.60;;;;;;;;;;1790238;78;26296;-42
2022/03/20 01:43:16;;;;;;;0.62;0.62;;;;;;;;;;1818145;79;26324;-43
2022/03/20 01:45:44;;;;;;;0.75;0.75;;;;;;;;;;1818992;77;26784;-44
2022/03/20 01:48:12;;;;;;;0.57;0.57;;;;;;;;;;1790509;79;26352;-44
2022/03/20 01:50:39;;;;;;;0.60;0.60;;;;;;;;;;1806623;78;26793;-45
2022/03/20 01:53:06;;;;;;;0.50;0.50;;;;;;;;;;1796628;79;26671;-44
2022/03/20 01:55:34;;;;;;;0.50;0.50;;;;;;;;;;1799487;78;26293;-43
2022/03/20 01:58:01;;;;;;;0.70;0.70;;;;;;;;;;1825274;77;26743;-43
2022/03/20 02:00:31;;;;;;;0.50;0.50;;;;;;;;;;1800058;78;26405;-43
2022/03/20 02:02:59;;;;;;;0.50;0.50;;;;;;;;;;1794281;78;26795;-44
2022/03/20 02:05:27;;;;;;;0.65;0.65;;;;;;;;;;1811393;77;26268;-44
2022/03/20 02:07:54;;;;;;;0.50;0.50;;;;;;;;;;1797027;78;26429;-43
2022/03/20 02:10:22;;;;;;;0.57;0.55;;;;;;;;;;1813110;77;26318;-43
2022/03/20 02:12:49;;;;;;;0.57;0.57;;;;;;;;;;1806584;77;26265;-43
2022/03/20 02:15:16;;;;;;;0.57;0.57;;;;;;;;;;1809869;77;26269;-43
2022/03/20 02:17:44;;;;;;;0.60;0.60;;;;;;;;;;1808181;79;26286;-44
2022/03/20 02:20:13;;;;;;;0.37;0.37;;;;;;;;;;1807110;77;26215;-42
2022/03/20 02:22:41;;;;;;;0.78;0.62;;;;;;;;;;1814084;77;26342;-44
2022/03/20 02:25:10;;;;;;;0.70;0.70;;;;;;;;;;1792073;79;26301;-43
2022/03/20 02:27:44;;;;;;;1.40;0.60;;;;;;;;;;1797405;78;26261;-44
2022/03/20 02:30:12;;;;;;;2.05;0.60;;;;;;;;;;1808054;78;26983;-45
2022/03/20 02:32:36;;;;;;;0.55;0.55;;;;;;;;;;1817413;77;26275;-46
2022/03/20 02:35:05;;;;;;;0.50;0.50;;;;;;;;;;1796291;77;26296;-44
2022/03/20 02:37:33;;;;;;;0.50;0.50;;;;;;;;;;1790597;78;26839;-46
2022/03/20 02:40:01;;;;;;;0.50;0.50;;;;;;;;;;1790779;79;26293;-44
2022/03/20 02:42:29;;;;;;;0.45;0.45;;;;;;;;;;1808264;79;26255;-45
2022/03/20 02:45:03;;;;;;;0.53;0.53;;;;;;;;;;1823333;77;26306;-44
2022/03/20 02:47:31;;;;;;;0.45;0.45;;;;;;;;;;1810358;77;26383;-43
2022/03/20 02:50:04;;;;;;;0.62;0.62;;;;;;;;;;1799884;78;26297;-43
2022/03/20 02:52:33;;;;;;;0.57;0.57;;;;;;;;;;1792028;78;26297;-43
2022/03/20 02:55:01;;;;;;;0.50;0.50;;;;;;;;;;1785518;79;26811;-43
2022/03/20 02:57:30;;;;;;;0.50;0.50;;;;;;;;;;1818460;78;26275;-43
2022/03/20 03:00:02;;;;;;;0.50;0.50;;;;;;;;;;1796632;78;27695;-44
2022/03/20 03:02:31;;;;;;;0.50;0.50;;;;;;;;;;1801007;79;26296;-43
2022/03/20 03:04:59;;;;;;;0.50;0.50;;;;;;;;;;1808471;78;26295;-43
2022/03/20 03:07:27;;;;;;;0.55;0.50;;;;;;;;;;1801764;78;26378;-42
2022/03/20 03:12:40;;;;;;;0.45;0.45;;;;;;;;;;1796323;79;27353;-44
2022/03/20 03:15:20;;;;;;;0.60;0.60;;;;;;;;;;1809348;78;26283;-45
2022/03/20 03:17:49;;;;;;;0.50;0.50;;;;;;;;;;1783762;79;26303;-43
2022/03/20 03:20:21;;;;;;;0.62;0.62;;;;;;;;;;1811001;78;26292;-44
2022/03/20 03:22:46;;;;;;;0.50;0.50;;;;;;;;;;1781373;78;26780;-41
2022/03/20 03:25:13;;;;;;;0.70;0.70;;;;;;;;;;1784729;78;26259;-47
2022/03/20 03:27:40;;;;;;;0.60;0.60;;;;;;;;;;1781942;79;26344;-44
2022/03/20 03:30:08;;;;;;;0.40;0.40;;;;;;;;;;1786517;79;26746;-42
2022/03/20 03:32:36;;;;;;;0.40;0.40;;;;;;;;;;1800029;78;26258;-44
2022/03/20 03:37:49;;;;;;;0.60;0.60;;;;;;;;;;1784837;79;26811;-42
2022/03/20 03:40:17;;;;;;;0.55;0.55;;;;;;;;;;1805030;79;26695;-45
2022/03/20 03:42:44;;;;;;;0.62;0.60;;;;;;;;;;1805638;78;26291;-44
2022/03/20 03:45:11;;;;;;;0.40;0.40;;;;;;;;;;1804717;78;26301;-45
2022/03/20 03:47:40;;;;;;;2.72;0.50;;;;;;;;;;1792417;79;26373;-45
2022/03/20 03:50:08;;;;;;;0.65;0.60;;;;;;;;;;1785983;79;26334;-43
2022/03/20 03:52:35;;;;;;;0.60;0.60;;;;;;;;;;1780388;79;26805;-43
2022/03/20 03:55:03;;;;;;;0.57;0.57;;;;;;;;;;1793437;78;26885;-42
2022/03/20 03:57:30;;;;;;;0.68;0.68;;;;;;;;;;1789116;79;26282;-46
2022/03/20 03:59:58;;;;;;;0.40;0.40;;;;;;;;;;1777368;79;26258;-43
2022/03/20 04:02:26;;;;;;;0.50;0.50;;;;;;;;;;1776624;79;26263;-44
2022/03/20 04:04:54;;;;;;;0.60;0.60;;;;;;;;;;1783798;79;26704;-46
2022/03/20 04:07:21;;;;;;;0.40;0.40;;;;;;;;;;1802038;78;26374;-44
2022/03/20 04:09:49;;;;;;;0.50;0.50;;;;;;;;;;1799170;78;26287;-43
2022/03/20 04:12:16;;;;;;;0.50;0.50;;;;;;;;;;1796240;78;26707;-45
2022/03/20 04:14:45;;;;;;;0.60;0.60;;;;;;;;;;1792205;78;26260;-44
2022/03/20 04:17:12;;;;;;;0.55;0.42;;;;;;;;;;1803200;79;26333;-45
2022/03/20 04:19:40;;;;;;;0.47;0.47;;;;;;;;;;1807674;78;26270;-43
2022/03/20 04:22:07;;;;;;;0.60;0.60;;;;;;;;;;1784744;78;26277;-44
2022/03/20 04:24:36;;;;;;;0.30;0.30;;;;;;;;;;1782872;78;26695;-44
2022/03/20 04:27:05;;;;;;;1.07;0.60;;;;;;;;;;1794960;78;26333;-42
2022/03/20 04:29:32;;;;;;;2.05;0.57;;;;;;;;;;1807486;78;26291;-47
2022/03/20 04:32:00;;;;;;;0.60;0.60;;;;;;;;;;1792661;78;27451;-43
2022/03/20 04:34:27;;;;;;;0.50;0.50;;;;;;;;;;1781858;79;26227;-44
2022/03/20 04:36:56;;;;;;;2.20;0.50;;;;;;;;;;1781986;78;26917;-43
2022/03/20 04:39:24;;;;;;;0.57;0.50;;;;;;;;;;1782288;78;27283;-44
2022/03/20 04:41:52;;;;;;;1.30;0.60;;;;;;;;;;1796125;78;26314;-43
2022/03/20 04:44:19;;;;;;;0.85;0.72;;;;;;;;;;1797281;79;26360;-43
2022/03/20 04:46:46;;;;;;;0.53;0.53;;;;;;;;;;1785484;78;26348;-44
2022/03/20 05:00:15;;;;;;;0.60;0.60;;;;;;;;;;1805890;78;26965;-44
2022/03/20 05:02:43;;;;;;;0.60;0.60;;;;;;;;;;1796392;78;26792;-46
2022/03/20 05:05:11;;;;;;;0.72;0.50;;;;;;;;;;1786185;78;26293;-43
2022/03/20 05:07:39;;;;;;;0.50;0.50;;;;;;;;;;1791597;79;26352;-43
2022/03/20 05:15:36;;;;;;;0.50;0.50;;;;;;;;;;1783748;78;26369;-44
2022/03/20 05:18:05;;;;;;;1.07;0.50;;;;;;;;;;1811585;78;27346;-43
2022/03/20 05:20:32;;;;;;;0.60;0.60;;;;;;;;;;1790609;78;26291;-43
2022/03/20 05:23:00;;;;;;;0.55;0.55;;;;;;;;;;1788606;79;26270;-42
2022/03/20 05:25:31;;;;;;;0.50;0.50;;;;;;;;;;1780426;78;26352;-42
2022/03/20 05:27:58;;;;;;;0.42;0.42;;;;;;;;;;1789092;79;26392;-44
2022/03/20 05:30:25;;;;;;;0.40;0.40;;;;;;;;;;1801438;78;26293;-43
2022/03/20 05:32:53;;;;;;;0.50;0.50;;;;;;;;;;1809001;78;26286;-43
2022/03/20 05:35:20;;;;;;;0.60;0.60;;;;;;;;;;1800274;79;26747;-45
2022/03/20 05:37:48;;;;;;;0.47;0.47;;;;;;;;;;1773829;79;26360;-45
2022/03/20 05:40:15;;;;;;;0.50;0.50;;;;;;;;;;1786137;79;26259;-44
2022/03/20 05:42:43;;;;;;;0.90;0.68;;;;;;;;;;1798673;78;27462;-43
2022/03/20 05:45:11;;;;;;;0.40;0.40;;;;;;;;;;1780956;79;26274;-44
2022/03/20 05:47:40;;;;;;;0.50;0.50;;;;;;;;;;1780025;78;26281;-44
2022/03/20 05:50:08;;;;;;;0.75;0.68;;;;;;;;;;1784024;78;26710;-44
2022/03/20 05:52:36;;;;;;;0.50;0.50;;;;;;;;;;1786348;78;26287;-44
2022/03/20 05:55:04;;;;;;;1.40;0.65;;;;;;;;;;1789733;78;26293;-45
2022/03/20 06:00:24;;;;;;;0.60;0.60;;;;;;;;;;1782965;78;26269;-43
2022/03/20 06:02:51;;;;;;;1.35;0.40;;;;;;;;;;1793849;78;26805;-44
2022/03/20 06:05:19;;;;;;;0.50;0.50;;;;;;;;;;1791413;78;26390;-44
2022/03/20 06:07:47;;;;;;;0.60;0.60;;;;;;;;;;1783607;78;26320;-43
2022/03/20 06:10:15;;;;;;;0.72;0.60;;;;;;;;;;1783861;78;26299;-44
2022/03/20 06:12:42;;;;;;;0.80;0.50;;;;;;;;;;1792833;78;26844;-46
2022/03/20 06:15:10;;;;;;;0.35;0.35;;;;;;;;;;1785207;78;26286;-44
2022/03/20 06:17:38;;;;;;;0.85;0.53;;;;;;;;;;1792805;78;25675;-42
2022/03/20 06:20:07;;;;;;;0.40;0.40;;;;;;;;;;1784333;78;26385;-43
2022/03/20 06:22:36;;;;;;;0.40;0.40;;;;;;;;;;1791784;78;26718;-43
2022/03/20 06:25:04;;;;;;;1.87;0.50;;;;;;;;;;1785749;78;26746;-45
2022/03/20 06:27:47;;;;;;;0.72;0.57;;;;;;;;;;1786345;78;26804;-43
2022/03/20 06:30:16;;;;;;;0.50;0.50;;;;;;;;;;1794391;78;26321;-43
2022/03/20 06:32:44;;;;;;;0.50;0.50;;;;;;;;;;1786606;78;26282;-45
2022/03/20 06:35:12;;;;;;;1.07;0.62;;;;;;;;;;1789599;78;26325;-43
2022/03/20 06:37:40;;;;;;;0.50;0.50;;;;;;;;;;1780335;78;26756;-44
2022/03/20 06:40:08;;;;;;;1.22;0.60;;;;;;;;;;1783368;78;27247;-44
2022/03/20 06:42:36;;;;;;;0.50;0.50;;;;;;;;;;1791351;78;26651;-42
2022/03/20 06:45:05;;;;;;;1.85;0.50;;;;;;;;;;1792770;78;26265;-46
2022/03/20 06:47:32;;;;;;;0.57;0.57;;;;;;;;;;1784070;78;28065;-45
2022/03/20 06:50:00;;;;;;;0.75;0.40;;;;;;;;;;1793043;78;26775;-44
2022/03/20 06:52:31;;;;;;;0.60;0.60;;;;;;;;;;1792346;78;25904;-43
2022/03/20 06:54:58;;;;;;;0.37;0.37;;;;;;;;;;1787833;78;26835;-44
2022/03/20 06:57:26;;;;;;;0.60;0.57;;;;;;;;;;1788910;78;26297;-42
2022/03/20 06:59:54;;;;;;;0.47;0.47;;;;;;;;;;1784564;78;26722;-43
2022/03/20 07:02:21;;;;;;;0.60;0.60;;;;;;;;;;1782108;78;26286;-44
2022/03/20 07:04:50;;;;;;;0.45;0.45;;;;;;;;;;1787201;78;26322;-44
2022/03/20 07:07:18;;;;;;;0.70;0.50;;;;;;;;;;1787310;78;26852;-43
2022/03/20 07:09:46;;;;;;;0.47;0.47;;;;;;;;;;1798167;78;26337;-44
2022/03/20 07:12:14;;;;;;;0.45;0.45;;;;;;;;;;1793416;78;26330;-43
2022/03/20 07:14:42;;;;;;;0.47;0.47;;;;;;;;;;1791792;78;26295;-42
2022/03/20 07:17:11;;;;;;;0.50;0.50;;;;;;;;;;1801092;78;26286;-44
2022/03/20 07:19:39;;;;;;;0.60;0.60;;;;;;;;;;1793301;78;26294;-43
2022/03/20 07:22:07;;;;;;;1.07;0.40;;;;;;;;;;1788500;78;26317;-45
2022/03/20 07:24:34;;;;;;;0.40;0.40;;;;;;;;;;1788491;78;26263;-42
2022/03/20 07:29:49;;;;;;;0.50;0.50;;;;;;;;;;1787633;79;26394;-41
2022/03/20 07:32:16;;;;;;;0.60;0.60;;;;;;;;;;1799650;79;26295;-41
2022/03/20 07:34:45;;;;;;;0.55;0.50;;;;;;;;;;1794225;79;26262;-41
2022/03/20 07:37:16;;;;;;;0.50;0.50;;;;;;;;;;1792979;79;26288;-41
2022/03/20 07:39:45;;;;;;;0.50;0.50;;;;;;;;;;1788543;78;26357;-42
2022/03/20 07:42:13;;;;;;;0.50;0.50;;;;;;;;;;1792355;79;26774;-42
2022/03/20 07:44:41;;;;;;;0.42;0.42;;;;;;;;;;1798174;79;26357;-41
2022/03/20 07:47:11;;;;;;;2.27;0.60;;;;;;;;;;1805183;78;26275;-43
2022/03/20 07:49:39;;;;;;;0.55;0.42;;;;;;;;;;1792095;79;25654;-42
2022/03/20 07:52:07;;;;;;;0.50;0.50;;;;;;;;;;1792310;78;26307;-41
2022/03/20 07:54:36;;;;;;;0.42;0.42;;;;;;;;;;1797672;79;26556;-44
2022/03/20 07:57:05;;;;;;;0.42;0.42;;;;;;;;;;1801517;79;26329;-42
2022/03/20 07:59:32;;;;;;;0.50;0.50;;;;;;;;;;1789247;79;26643;-42
2022/03/20 08:02:00;;;;;;;0.42;0.42;;;;;;;;;;1809372;79;26271;-42
2022/03/20 08:04:27;;;;;;;0.50;0.50;;;;;;;;;;1793176;79;26310;-42
2022/03/20 08:06:54;;;;;;;1.72;0.60;;;;;;;;;;1780455;78;26266;-42
2022/03/20 08:09:21;;;;;;;0.50;0.50;;;;;;;;;;1781070;79;26289;-43
2022/03/20 08:11:49;;;;;;;0.40;0.40;;;;;;;;;;1810311;78;26309;-42
2022/03/20 08:14:16;;;;;;;0.53;0.50;;;;;;;;;;1800452;78;26290;-42
2022/03/20 08:16:43;;;;;;;0.60;0.60;;;;;;;;;;1812086;77;26285;-43
2022/03/20 08:19:12;;;;;;;0.37;0.37;;;;;;;;;;1801421;78;26740;-43
2022/03/20 08:21:39;;;;;;;0.50;0.47;;;;;;;;;;1803791;78;26248;-42
2022/03/20 08:24:07;;;;;;;0.55;0.50;;;;;;;;;;1817997;77;26801;-41
2022/03/20 08:26:35;;;;;;;0.50;0.50;;;;;;;;;;1804668;78;26932;-44
2022/03/20 08:29:02;;;;;;;0.57;0.50;;;;;;;;;;1788381;79;26797;-41
2022/03/20 08:31:31;;;;;;;0.50;0.50;;;;;;;;;;1814511;77;26345;-43
2022/03/20 08:33:58;;;;;;;1.07;0.40;;;;;;;;;;1794492;77;26297;-43
2022/03/20 08:36:26;;;;;;;0.60;0.60;;;;;;;;;;1820660;77;26329;-42
2022/03/20 08:38:53;;;;;;;0.62;0.62;;;;;;;;;;1790933;77;27427;-45
2022/03/20 08:41:20;;;;;;;1.37;0.40;;;;;;;;;;1788290;78;26309;-47
2022/03/20 08:43:48;;;;;;;0.68;0.50;;;;;;;;;;1797433;78;26289;-44
2022/03/20 08:46:19;;;;;;;0.42;0.42;;;;;;;;;;1805789;78;26231;-45
2022/03/20 08:48:44;;;;;;;0.45;0.45;;;;;;;;;;1810890;77;26296;-45
2022/03/20 08:51:12;;;;;;;1.42;0.57;;;;;;;;;;1797411;77;26762;-45
2022/03/20 08:53:39;;;;;;;0.50;0.50;;;;;;;;;;1795214;78;26808;-45
2022/03/20 08:56:06;;;;;;;0.50;0.50;;;;;;;;;;1795415;77;26742;-43
2022/03/20 08:58:33;;;;;;;0.57;0.47;;;;;;;;;;1801364;78;26227;-47
2022/03/20 09:01:01;;;;;;;0.53;0.53;;;;;;;;;;1811585;78;26290;-47
2022/03/20 09:03:29;;;;;;;0.70;0.70;;;;;;;;;;1794667;78;26313;-47
2022/03/20 09:05:57;;;;;;;0.55;0.55;;;;;;;;;;1807990;77;26243;-49
2022/03/20 09:08:24;;;;;;;0.60;0.60;;;;;;;;;;1802057;79;26270;-47
2022/03/20 09:10:52;;;;;;;0.40;0.40;;;;;;;;;;1795980;77;26301;-48
2022/03/20 09:13:19;;;;;;;0.60;0.60;;;;;;;;;;1825518;77;26638;-43
2022/03/20 09:18:58;;;;;;;0.62;0.60;;;;;;;;;;1802919;77;28230;-43
2022/03/20 09:21:02;;;;;;;1.30;0.62;;;;;;;;;;1794613;78;28294;-43
2022/03/20 09:23:29;;;;;;;0.60;0.40;;;;;;;;;;1807466;77;26379;-44
2022/03/20 09:25:56;;;;;;;0.60;0.60;;;;;;;;;;1808459;77;26337;-47
2022/03/20 09:28:23;;;;;;;0.53;0.53;;;;;;;;;;1795402;77;26287;-45
2022/03/20 09:30:51;;;;;;;0.45;0.45;;;;;;;;;;1794652;77;26353;-43
2022/03/20 09:33:20;;;;;;;0.50;0.50;;;;;;;;;;1794537;77;26317;-45
2022/03/20 09:35:47;;;;;;;0.60;0.40;;;;;;;;;;1812217;77;25471;-43
2022/03/20 09:38:14;;;;;;;1.98;0.72;;;;;;;;;;1814226;77;26291;-44
2022/03/20 09:40:43;;;;;;;0.50;0.50;;;;;;;;;;1813255;79;26558;-46
2022/03/20 09:43:10;;;;;;;0.45;0.45;;;;;;;;;;1800989;77;26809;-43
2022/03/20 09:45:38;;;;;;;0.50;0.50;;;;;;;;;;1805737;77;26705;-44
2022/03/20 09:48:05;;;;;;;0.50;0.50;;;;;;;;;;1795185;78;26293;-45
2022/03/20 09:50:33;;;;;;;0.57;0.50;;;;;;;;;;1794277;77;26286;-43
2022/03/20 09:53:01;;;;;;;0.50;0.50;;;;;;;;;;1810568;78;26263;-43
2022/03/20 09:55:28;;;;;;;0.68;0.68;;;;;;;;;;1800096;79;26344;-44
2022/03/20 09:57:58;;;;;;;0.57;0.57;;;;;;;;;;1812097;78;26302;-43
2022/03/20 10:00:26;;;;;;;0.50;0.50;;;;;;;;;;1810763;78;26287;-45
2022/03/20 10:02:53;;;;;;;0.70;0.70;;;;;;;;;;1823389;77;26829;-43
2022/03/20 10:05:21;;;;;;;0.40;0.40;;;;;;;;;;1820148;77;26737;-45
2022/03/20 10:07:49;;;;;;;0.50;0.50;;;;;;;;;;1811202;77;26282;-44
2022/03/20 10:10:22;;;;;;;0.50;0.50;;;;;;;;;;1804929;77;26299;-43
2022/03/20 10:12:52;;;;;;;0.35;0.35;;;;;;;;;;1789044;78;26374;-46
2022/03/20 10:15:30;;;;;;;0.50;0.50;;;;;;;;;;1796078;78;26228;-43
2022/03/20 10:18:09;;;;;;;0.55;0.55;;;;;;;;;;1794276;78;26520;-44
2022/03/20 10:20:44;;;;;;;0.50;0.50;;;;;;;;;;1800071;78;26706;-45
2022/03/20 10:23:31;;;;;;;0.60;0.60;;;;;;;;;;1794702;78;26303;-44
2022/03/20 10:25:59;;;;;;;1.47;0.53;;;;;;;;;;1796772;78;26303;-44
2022/03/20 10:28:40;;;;;;;0.42;0.42;;;;;;;;;;1804810;78;26393;-44
2022/03/20 10:31:09;;;;;;;0.40;0.40;;;;;;;;;;1797301;79;26739;-44
2022/03/20 10:33:41;;;;;;;0.62;0.57;;;;;;;;;;1775263;79;26365;-45
2022/03/20 10:36:09;;;;;;;0.45;0.45;;;;;;;;;;1782496;79;26330;-44
2022/03/20 10:38:37;;;;;;;0.40;0.40;;;;;;;;;;1777073;79;26360;-44
2022/03/20 10:41:23;;;;;;;0.50;0.50;;;;;;;;;;1803842;78;26270;-44
2022/03/20 10:43:51;;;;;;;0.30;0.30;;;;;;;;;;1777322;79;25719;-42
2022/03/20 10:46:20;;;;;;;1.27;0.40;;;;;;;;;;1786608;79;26284;-43
2022/03/20 10:48:48;;;;;;;0.40;0.40;;;;;;;;;;1784382;79;26301;-44
2022/03/20 10:51:17;;;;;;;0.40;0.40;;;;;;;;;;1802547;78;26286;-44
2022/03/20 10:53:55;;;;;;;0.40;0.40;;;;;;;;;;1803953;79;26287;-45
2022/03/20 10:56:23;;;;;;;0.47;0.47;;;;;;;;;;1782600;78;26231;-45
2022/03/20 10:58:51;;;;;;;0.40;0.40;;;;;;;;;;1778884;79;26555;-44
2022/03/20 11:01:18;;;;;;;0.40;0.40;;;;;;;;;;1788428;79;26925;-43
2022/03/20 11:03:46;;;;;;;0.33;0.33;;;;;;;;;;1801469;78;26407;-43
2022/03/20 11:06:14;;;;;;;0.50;0.50;;;;;;;;;;1791280;78;26297;-43
2022/03/20 11:08:42;;;;;;;0.30;0.30;;;;;;;;;;1787195;78;26325;-43
2022/03/20 11:11:12;;;;;;;0.42;0.42;;;;;;;;;;1794057;78;26450;-48
2022/03/20 11:13:45;;;;;;;0.72;0.45;;;;;;;;;;1788027;78;26270;-47
2022/03/20 11:16:10;;;;;;;0.50;0.50;;;;;;;;;;1791891;78;26235;-42
2022/03/20 11:18:39;;;;;;;0.60;0.40;;;;;;;;;;1791641;78;26322;-46
2022/03/20 11:21:08;;;;;;;0.93;0.30;;;;;;;;;;1789512;78;26270;-44
2022/03/20 11:23:36;;;;;;;0.30;0.30;;;;;;;;;;1793267;78;26356;-43
2022/03/20 11:26:04;;;;;;;0.40;0.30;;;;;;;;;;1787559;78;26774;-43
2022/03/20 11:28:33;;;;;;;0.50;0.50;;;;;;;;;;1796419;78;26310;-44
2022/03/20 11:31:00;;;;;;;0.30;0.30;;;;;;;;;;1739242;81;26362;-43
2022/03/20 11:33:28;;;;;;;0.45;0.45;;;;;;;;;;1749670;80;27361;-44
2022/03/20 11:35:55;;;;;;;0.33;0.33;;;;;;;;;;1740734;80;26276;-44
2022/03/20 11:38:28;;;;;;;0.45;0.45;;;;;;;;;;1747829;80;26770;-44
2022/03/20 11:41:07;;;;;;;0.50;0.47;;;;;;;;;;1753757;80;26426;-45
2022/03/20 11:43:35;;;;;;;0.50;0.50;;;;;;;;;;1742026;80;26265;-45
2022/03/20 11:46:21;;;;;;;0.40;0.40;;;;;;;;;;1748430;80;26260;-44
2022/03/20 11:49:06;;;;;;;0.50;0.50;;;;;;;;;;1749356;80;26285;-45
2022/03/20 11:51:53;;;;;;;0.40;0.40;;;;;;;;;;1705484;83;26420;-45
2022/03/20 11:54:21;;;;;;;0.50;0.50;;;;;;;;;;1734561;80;26328;-43
2022/03/20 11:56:48;;;;;;;0.50;0.50;;;;;;;;;;1748883;80;27287;-43
2022/03/20 11:59:17;;;;;;;0.37;0.37;;;;;;;;;;1746718;80;26338;-43
2022/03/20 12:02:05;;;;;;;0.40;0.40;;;;;;;;;;1723429;80;26946;-43
2022/03/20 12:04:30;;;;;;;0.30;0.30;;;;;;;;;;1750175;80;26318;-43
2022/03/20 12:07:02;;;;;;;0.50;0.50;;;;;;;;;;1744298;80;26356;-44
2022/03/20 12:09:43;;;;;;;0.30;0.30;;;;;;;;;;1747713;80;26312;-45
2022/03/20 12:12:12;;;;;;;0.37;0.37;;;;;;;;;;1752338;80;26360;-44
2022/03/20 12:14:40;;;;;;;0.50;0.50;;;;;;;;;;1740798;80;26303;-42
2022/03/20 12:17:07;;;;;;;0.30;0.30;;;;;;;;;;1748033;80;26292;-45
2022/03/20 12:19:55;;;;;;;0.78;0.50;;;;;;;;;;1739692;81;26830;-43
2022/03/20 12:22:27;;;;;;;0.40;0.40;;;;;;;;;;1745694;81;26300;-43
2022/03/20 12:24:57;;;;;;;0.50;0.50;;;;;;;;;;1740650;81;26824;-43
2022/03/20 12:27:26;;;;;;;0.60;0.60;;;;;;;;;;1741314;81;26330;-42
2022/03/20 12:30:02;;;;;;;0.93;0.53;;;;;;;;;;1741892;80;26310;-44
2022/03/20 12:32:52;;;;;;;0.85;0.50;;;;;;;;;;1743914;81;26307;-44
2022/03/20 12:35:24;;;;;;;0.40;0.40;;;;;;;;;;1736370;81;26329;-44
2022/03/20 12:37:53;;;;;;;0.40;0.40;;;;;;;;;;1739628;81;26355;-44
2022/03/20 12:40:28;;;;;;;0.53;0.53;;;;;;;;;;1744927;80;26292;-45
2022/03/20 12:42:57;;;;;;;0.30;0.30;;;;;;;;;;1739119;80;26287;-44
2022/03/20 12:45:26;;;;;;;0.50;0.50;;;;;;;;;;1739982;81;26237;-44
2022/03/20 12:47:55;;;;;;;0.50;0.50;;;;;;;;;;1743675;81;26347;-45
2022/03/20 12:50:24;;;;;;;0.40;0.40;;;;;;;;;;1740278;81;26393;-43
2022/03/20 12:52:53;;;;;;;0.40;0.40;;;;;;;;;;1741229;80;26334;-44
2022/03/20 12:55:21;;;;;;;0.45;0.45;;;;;;;;;;1742550;80;26318;-44
2022/03/20 12:57:49;;;;;;;0.40;0.40;;;;;;;;;;1736105;81;26802;-44
2022/03/20 13:00:18;;;;;;;0.55;0.40;;;;;;;;;;1745646;81;26326;-45
2022/03/20 13:03:06;;;;;;;0.37;0.37;;;;;;;;;;1738912;81;26837;-44
2022/03/20 13:05:40;;;;;;;0.78;0.57;;;;;;;;;;1736907;80;26264;-44
2022/03/20 13:08:09;;;;;;;0.50;0.50;;;;;;;;;;1734278;81;26880;-44
2022/03/20 13:10:38;;;;;;;0.60;0.60;;;;;;;;;;1737226;81;26879;-46
2022/03/20 13:13:06;;;;;;;0.50;0.50;;;;;;;;;;1728895;81;26362;-44
2022/03/20 13:15:34;;;;;;;0.60;0.60;;;;;;;;;;1750156;80;26292;-43
2022/03/20 13:18:03;;;;;;;1.37;0.60;;;;;;;;;;1755166;80;26277;-45
2022/03/20 13:20:32;;;;;;;0.40;0.40;;;;;;;;;;1765784;80;27475;-45
2022/03/20 13:23:01;;;;;;;0.60;0.60;;;;;;;;;;1757986;80;26961;-45
2022/03/20 13:25:30;;;;;;;0.40;0.40;;;;;;;;;;1747964;80;26354;-44
2022/03/20 13:27:58;;;;;;;0.50;0.50;;;;;;;;;;1756153;80;26746;-43
2022/03/20 13:30:35;;;;;;;0.60;0.60;;;;;;;;;;1749686;80;26258;-45
2022/03/20 13:33:03;;;;;;;0.50;0.50;;;;;;;;;;1760457;81;26815;-45
2022/03/20 13:35:31;;;;;;;0.50;0.50;;;;;;;;;;1751029;80;26374;-46
2022/03/20 13:37:59;;;;;;;0.50;0.50;;;;;;;;;;1755384;81;26860;-43
2022/03/20 13:40:28;;;;;;;0.50;0.50;;;;;;;;;;1750303;80;26350;-43
2022/03/20 13:42:55;;;;;;;0.57;0.57;;;;;;;;;;1748430;80;26372;-45
2022/03/20 13:45:25;;;;;;;0.40;0.40;;;;;;;;;;1743302;80;26700;-45
2022/03/20 13:47:52;;;;;;;0.40;0.40;;;;;;;;;;1750676;81;26399;-45
2022/03/20 13:50:21;;;;;;;0.60;0.60;;;;;;;;;;1761017;80;26704;-44
2022/03/20 13:52:51;;;;;;;0.47;0.47;;;;;;;;;;1743290;80;26294;-43
2022/03/20 13:55:19;;;;;;;0.50;0.50;;;;;;;;;;1746792;80;26295;-43
2022/03/20 13:57:50;;;;;;;0.45;0.45;;;;;;;;;;1759539;79;26304;-43
2022/03/20 14:00:19;;;;;;;0.60;0.60;;;;;;;;;;1762870;80;26268;-46
2022/03/20 14:02:48;;;;;;;0.53;0.53;;;;;;;;;;1751692;80;26410;-45
2022/03/20 14:05:25;;;;;;;0.82;0.50;;;;;;;;;;1769365;80;26259;-44
2022/03/20 14:08:09;;;;;;;0.40;0.40;;;;;;;;;;1763752;80;26300;-44
2022/03/20 14:10:47;;;;;;;0.50;0.50;;;;;;;;;;1757991;81;26245;-43
2022/03/20 14:13:18;;;;;;;0.70;0.70;;;;;;;;;;1757918;79;26403;-42
2022/03/20 14:15:54;;;;;;;0.55;0.55;;;;;;;;;;1795492;78;26389;-42
2022/03/20 14:18:21;;;;;;;0.47;0.47;;;;;;;;;;1807778;79;26679;-42
2022/03/20 14:20:48;;;;;;;0.53;0.50;;;;;;;;;;1794913;79;26698;-43
2022/03/20 14:23:18;;;;;;;0.60;0.60;;;;;;;;;;1802639;79;26223;-44
2022/03/20 14:25:46;;;;;;;0.98;0.55;;;;;;;;;;1796745;78;26290;-47
2022/03/20 14:28:15;;;;;;;0.50;0.50;;;;;;;;;;1800039;78;26356;-45
2022/03/20 14:39:26;;;;;;;0.60;0.60;;;;;;;;;;1797482;78;26366;-43
2022/03/20 14:41:54;;;;;;;0.62;0.62;;;;;;;;;;1793826;78;27549;-45
2022/03/20 14:44:22;;;;;;;0.50;0.50;;;;;;;;;;1792654;78;26276;-45
2022/03/20 14:46:51;;;;;;;0.53;0.53;;;;;;;;;;1789087;78;26738;-43
2022/03/20 14:49:20;;;;;;;0.53;0.53;;;;;;;;;;1788438;78;26695;-43
2022/03/20 14:51:48;;;;;;;0.75;0.60;;;;;;;;;;1804236;78;26801;-44
2022/03/20 14:54:17;;;;;;;0.80;0.50;;;;;;;;;;1787074;78;26344;-43
2022/03/20 14:56:44;;;;;;;0.60;0.60;;;;;;;;;;1784442;78;26311;-45
2022/03/20 14:59:12;;;;;;;0.50;0.50;;;;;;;;;;1788942;78;26400;-43
2022/03/20 15:01:44;;;;;;;0.70;0.70;;;;;;;;;;1783161;78;26384;-43
2022/03/20 15:04:12;;;;;;;0.60;0.60;;;;;;;;;;1782688;78;26338;-43
2022/03/20 15:06:42;;;;;;;0.53;0.53;;;;;;;;;;1817490;78;26274;-44
2022/03/20 15:11:56;;;;;;;0.53;0.53;;;;;;;;;;1795884;78;26310;-46
2022/03/20 15:14:24;;;;;;;0.60;0.60;;;;;;;;;;1783089;79;26315;-43
2022/03/20 15:16:51;;;;;;;0.50;0.50;;;;;;;;;;1812282;78;26271;-42
2022/03/20 15:19:19;;;;;;;0.60;0.60;;;;;;;;;;1799516;78;26302;-43
2022/03/20 15:21:47;;;;;;;0.70;0.70;;;;;;;;;;1778762;79;26787;-44
2022/03/20 15:24:14;;;;;;;0.80;0.55;;;;;;;;;;1789790;79;26275;-44
2022/03/20 15:26:43;;;;;;;0.57;0.57;;;;;;;;;;1782557;79;26689;-44
2022/03/20 15:29:11;;;;;;;0.65;0.65;;;;;;;;;;1779412;78;25772;-44
2022/03/20 15:31:39;;;;;;;0.45;0.45;;;;;;;;;;1776952;79;26380;-44
2022/03/20 15:34:07;;;;;;;0.53;0.53;;;;;;;;;;1802143;78;26276;-43
2022/03/20 15:36:38;;;;;;;0.60;0.60;;;;;;;;;;1786568;79;26294;-43